Time;durP1;ratioP1;P1;durP2;ratioP2;P2;SDS_P1;SDS_P2;PMS_P1;PMS_P2;Temp;Humidity;BMP_temperature;BMP_pressure;BME280_temperature;BME280_humidity;BME280_pressure;Samples;Min_cycle;Max_cycle;Signal;HPM_P1;HPM_P2
2023/12/16 00:03:22;;;;;;;;;;;10.70;66.20;;;9.08;66.04;103099.41;12248043;19;20263;-85
2023/12/16 00:07:23;;;;;;;;;;;10.80;66.30;;;9.04;65.99;103082.06;12249694;19;19914;-86
2023/12/16 00:11:25;;;;;;;;;;;10.80;66.30;;;9.21;65.96;103110.59;12246582;19;20230;-86
2023/12/16 00:15:27;;;;;;;;;;;10.80;66.30;;;9.32;65.92;103133.94;12247518;19;19914;-85
2023/12/16 00:19:29;;;;;;;;;;;10.80;66.30;;;9.23;66.02;103127.06;12247218;19;19965;-85
2023/12/16 00:23:31;;;;;;;;;;;10.90;66.40;;;9.33;65.95;103143.47;12249621;19;20238;-86
2023/12/16 00:27:32;;;;;;;;;;;10.80;66.40;;;9.35;66.14;103143.47;12249637;19;19926;-85
2023/12/16 00:31:34;;;;;;;;;;;10.80;66.40;;;9.30;66.07;103136.53;12245129;19;19915;-86
2023/12/16 00:35:36;;;;;;;;;;;10.80;66.30;;;9.25;66.03;103122.69;12245921;19;20271;-86
2023/12/16 00:39:37;;;;;;;;;;;10.90;66.50;;;9.30;66.11;103125.25;12248043;19;19915;-85
2023/12/16 00:43:39;;;;;;;;;;;10.80;66.40;;;9.38;65.93;103133.84;12246015;19;19922;-86
2023/12/16 00:47:40;;;;;;;;;;;10.90;66.40;;;9.40;66.09;103131.25;12245388;19;19923;-86
2023/12/16 00:51:42;;;;;;;;;;;10.90;66.40;;;9.37;66.00;103124.31;12241058;19;19936;-86
2023/12/16 00:55:43;;;;;;;;;;;10.90;66.50;;;9.43;65.96;103133.81;12242868;19;19927;-85
2023/12/16 00:59:45;;;;;;;;;;;10.90;66.40;;;9.48;66.13;103134.63;12245103;19;20234;-86
2023/12/16 01:03:47;;;;;;;;;;;10.90;66.40;;;9.49;65.92;103150.25;12248535;19;19940;-85
2023/12/16 01:07:48;;;;;;;;;;;10.90;66.40;;;9.48;65.97;103153.75;12245627;19;19927;-86
2023/12/16 01:11:50;;;;;;;;;;;10.90;66.40;;;9.50;66.04;103153.72;12240899;19;19911;-85
2023/12/16 01:15:52;;;;;;;;;;;10.90;66.40;;;9.48;65.93;103158.97;12243257;19;19931;-85
2023/12/16 01:19:54;;;;;;;;;;;10.90;66.40;;;9.41;66.19;103148.59;12244244;19;19930;-86
2023/12/16 01:23:55;;;;;;;;;;;10.90;66.50;;;9.46;65.96;103144.19;12243072;19;20252;-86
2023/12/16 01:27:57;;;;;;;;;;;10.90;66.50;;;9.49;66.02;103145.03;12245295;19;19978;-86
2023/12/16 01:31:58;;;;;;;;;;;10.90;66.50;;;9.28;65.85;103101.78;12254264;19;19907;-86
2023/12/16 01:36:00;;;;;;;;;;;11.00;66.50;;;9.49;65.96;103146.78;12258461;19;20355;-86
2023/12/16 01:40:03;;;;;;;;;;;11.00;66.40;;;9.52;66.01;103146.72;12254890;19;19978;-86
2023/12/16 01:44:04;;;;;;;;;;;11.00;66.40;;;9.61;65.98;103159.66;12258765;19;19919;-86
2023/12/16 01:48:08;;;;;;;;;;;11.00;66.30;;;9.58;66.04;103145.78;12257796;19;19921;-86
2023/12/16 01:52:10;;;;;;;;;;;11.00;66.30;;;9.53;65.93;103151.94;12251573;19;19911;-86
2023/12/16 01:56:11;;;;;;;;;;;11.20;66.50;;;9.58;65.94;103167.53;12256901;19;19922;-86
2023/12/16 02:00:14;;;;;;;;;;;11.00;66.30;;;9.55;65.89;103166.69;12255154;19;19940;-86
2023/12/16 02:04:16;;;;;;;;;;;11.10;66.30;;;9.61;65.95;103169.22;12256433;19;19974;-86
2023/12/16 02:08:17;;;;;;;;;;;11.10;66.30;;;9.56;66.08;103164.09;12256554;19;19914;-86
2023/12/16 02:12:19;;;;;;;;;;;11.10;66.30;;;9.67;66.05;103169.19;12251377;19;19911;-86
2023/12/16 02:16:21;;;;;;;;;;;11.10;66.30;;;9.68;65.88;103158.72;12257540;19;20337;-86
2023/12/16 02:20:22;;;;;;;;;;;11.10;66.30;;;9.65;66.00;103142.25;12255733;19;19927;-86
2023/12/16 02:24:24;;;;;;;;;;;11.10;66.30;;;9.64;66.03;103137.88;12256640;19;20001;-86
2023/12/16 02:28:26;;;;;;;;;;;11.10;66.30;;;9.68;65.99;103161.31;12251608;19;20261;-86
2023/12/16 02:32:27;;;;;;;;;;;11.10;66.30;;;9.58;66.04;103143.19;12250086;19;19963;-86
2023/12/16 02:36:29;;;;;;;;;;;11.10;66.30;;;9.46;66.06;103132.03;12256567;19;19919;-85
2023/12/16 02:40:30;;;;;;;;;;;11.10;66.30;;;9.59;65.98;103150.16;12252700;19;19923;-86
2023/12/16 02:44:32;;;;;;;;;;;11.10;66.30;;;9.59;65.96;103168.41;12256224;19;19914;-86
2023/12/16 02:48:34;;;;;;;;;;;11.10;66.30;;;9.47;66.10;103143.31;12255744;19;19907;-86
2023/12/16 02:52:35;;;;;;;;;;;11.10;66.30;;;9.69;65.97;103183.94;12252300;19;20355;-86
2023/12/16 02:56:37;;;;;;;;;;;11.10;66.30;;;9.46;66.00;103133.78;12256086;19;19970;-86
2023/12/16 03:00:39;;;;;;;;;;;11.10;66.30;;;9.61;66.01;103154.44;12253226;19;19918;-85
2023/12/16 03:04:40;;;;;;;;;;;11.10;66.30;;;9.64;65.88;103167.47;12254694;19;19923;-86
2023/12/16 03:08:42;;;;;;;;;;;11.10;66.30;;;9.67;65.97;103166.56;12253438;19;19922;-86
2023/12/16 03:12:45;;;;;;;;;;;11.10;66.30;;;9.60;66.10;103168.38;12254315;19;19919;-86
2023/12/16 03:16:47;;;;;;;;;;;11.10;66.40;;;9.37;66.03;103131.25;12254816;19;19925;-85
2023/12/16 03:20:52;;;;;;;;;;;11.10;66.40;;;9.60;66.17;103164.91;12252833;19;19974;-86
2023/12/16 03:24:53;;;;;;;;;;;11.10;66.40;;;9.68;66.07;103183.94;12253969;19;19941;-86
2023/12/16 03:28:54;;;;;;;;;;;11.20;66.50;;;9.61;66.03;103175.31;12255292;19;20254;-86
2023/12/16 03:32:56;;;;;;;;;;;11.10;66.40;;;9.69;65.92;103190.88;12250476;19;20292;-86
2023/12/16 03:36:57;;;;;;;;;;;11.10;66.40;;;9.69;66.10;103191.75;12253431;19;19927;-86
2023/12/16 03:40:59;;;;;;;;;;;11.10;66.30;;;9.66;66.07;103190.91;12252219;19;19986;-86
2023/12/16 03:45:00;;;;;;;;;;;11.10;66.40;;;9.56;66.17;103174.53;12253164;19;19915;-86
2023/12/16 03:49:02;;;;;;;;;;;11.10;67.10;;;9.68;66.08;103213.50;12251199;19;19954;-86
2023/12/16 03:53:04;;;;;;;;;;;11.10;66.40;;;9.68;66.06;103207.41;12247009;19;20295;-86
2023/12/16 03:57:05;;;;;;;;;;;11.10;66.40;;;9.58;65.88;103192.75;12251216;19;19927;-86
2023/12/16 04:01:13;;;;;;;;;;;11.10;66.40;;;9.53;66.08;103182.34;12248763;19;19915;-86
2023/12/16 04:05:14;;;;;;;;;;;11.10;66.40;;;9.70;65.92;103200.44;12249522;19;19919;-86
2023/12/16 04:09:16;;;;;;;;;;;11.10;66.40;;;9.72;66.11;103196.06;12249137;19;19926;-85
2023/12/16 04:13:17;;;;;;;;;;;11.10;66.40;;;9.71;66.11;103195.19;12249521;19;20251;-86
2023/12/16 04:17:18;;;;;;;;;;;11.10;66.40;;;9.68;65.93;103192.63;12248473;19;20443;-86
2023/12/16 04:21:19;;;;;;;;;;;11.10;66.40;;;9.62;66.06;103176.19;12248546;19;19944;-86
2023/12/16 04:25:21;;;;;;;;;;;11.10;66.40;;;9.77;66.18;103199.47;12252477;19;19930;-86
2023/12/16 04:29:22;;;;;;;;;;;11.10;66.40;;;9.71;66.08;103192.59;12250676;19;19978;-85
2023/12/16 04:33:24;;;;;;;;;;;11.30;66.60;;;9.71;66.16;103189.97;12249864;19;19926;-86
2023/12/16 04:37:26;;;;;;;;;;;11.20;66.50;;;9.70;65.93;103184.78;12251618;19;19914;-86
2023/12/16 04:41:27;;;;;;;;;;;11.20;66.60;;;9.78;66.02;103192.53;12247695;19;19921;-86
2023/12/16 04:45:29;;;;;;;;;;;11.20;66.50;;;9.80;65.93;103189.00;12251943;19;19915;-86
2023/12/16 04:49:31;;;;;;;;;;;11.20;66.50;;;9.74;66.07;103181.25;12251397;19;19915;-86
2023/12/16 04:53:33;;;;;;;;;;;11.40;66.70;;;9.70;66.06;103170.00;12245088;19;20263;-85
2023/12/16 04:57:34;;;;;;;;;;;11.20;66.60;;;9.74;66.07;103182.09;12247643;19;19953;-85
2023/12/16 05:01:36;;;;;;;;;;;11.20;66.60;;;9.73;66.07;103183.00;12244569;19;19919;-85
2023/12/16 05:05:37;;;;;;;;;;;11.20;66.60;;;9.68;66.11;103176.13;12248929;19;19974;-86
2023/12/16 05:09:39;;;;;;;;;;;11.20;66.60;;;9.72;66.16;103191.72;12250742;19;19913;-86
2023/12/16 05:13:42;;;;;;;;;;;11.20;66.60;;;9.79;66.02;103197.72;12246202;19;20010;-85
2023/12/16 05:17:43;;;;;;;;;;;11.20;66.60;;;9.64;66.04;103162.25;12250254;19;19993;-86
2023/12/16 05:21:45;;;;;;;;;;;11.20;66.60;;;9.71;66.16;103178.69;12245732;19;19922;-86
2023/12/16 05:25:46;;;;;;;;;;;11.20;66.60;;;9.73;66.06;103174.31;12249632;19;19919;-85
2023/12/16 05:29:47;;;;;;;;;;;11.40;66.70;;;9.78;65.98;103202.97;12249066;19;19918;-85
2023/12/16 05:33:49;;;;;;;;;;;11.20;66.50;;;9.78;66.04;103222.09;12248192;19;19911;-85
2023/12/16 05:37:51;;;;;;;;;;;11.20;66.60;;;9.78;66.19;103221.25;12250684;19;19923;-85
2023/12/16 05:41:55;;;;;;;;;;;11.20;66.50;;;9.55;66.05;103187.56;12246802;19;20261;-85
2023/12/16 05:45:57;;;;;;;;;;;11.20;66.50;;;9.58;66.13;103197.97;12250479;19;19939;-86
2023/12/16 05:49:59;;;;;;;;;;;11.20;66.50;;;9.77;66.13;103237.75;12248550;19;19914;-86
2023/12/16 05:54:01;;;;;;;;;;;11.20;66.60;;;9.63;66.07;103211.81;12246617;19;19921;-85
2023/12/16 05:58:03;;;;;;;;;;;11.20;66.60;;;9.77;66.01;103236.00;12247903;19;19922;-86
2023/12/16 06:02:05;;;;;;;;;;;11.10;66.40;;;9.80;66.15;103225.53;12245483;19;19919;-85
2023/12/16 06:06:07;;;;;;;;;;;11.20;66.40;;;9.47;65.95;103172.00;12249620;19;19918;-86
2023/12/16 06:10:08;;;;;;;;;;;11.20;66.30;;;9.70;66.12;103230.00;12245649;19;19944;-86
2023/12/16 06:14:10;;;;;;;;;;;11.10;66.30;;;9.69;66.14;103233.50;12245495;19;19915;-86
2023/12/16 06:18:11;;;;;;;;;;;11.10;66.10;;;9.67;66.02;103237.00;12257504;19;19946;-85
2023/12/16 06:22:13;;;;;;;;;;;11.10;66.10;;;9.62;66.14;103221.41;12250951;19;19932;-85
2023/12/16 06:26:15;;;;;;;;;;;11.10;66.10;;;9.56;66.05;103224.09;12256407;19;20373;-85
2023/12/16 06:30:17;;;;;;;;;;;11.10;66.10;;;9.49;66.15;103214.59;12253388;19;20312;-85
2023/12/16 06:34:18;;;;;;;;;;;11.10;66.10;;;9.52;66.03;103204.13;12250957;19;19919;-85
2023/12/16 06:38:20;;;;;;;;;;;11.10;66.10;;;9.64;66.03;103218.75;12253626;19;20293;-85
2023/12/16 06:42:22;;;;;;;;;;;11.00;66.00;;;9.59;66.08;103205.78;12248875;19;19923;-85
2023/12/16 06:46:23;;;;;;;;;;;11.00;66.00;;;9.49;66.15;103196.34;12250994;19;19926;-85
2023/12/16 06:50:25;;;;;;;;;;;11.00;66.00;;;9.47;66.16;103200.69;12249143;19;19919;-84
2023/12/16 06:54:27;;;;;;;;;;;11.00;66.00;;;9.52;66.20;103238.88;12248057;19;20352;-85
2023/12/16 06:58:29;;;;;;;;;;;10.90;66.00;;;9.53;66.13;103244.97;12252037;19;19910;-85
2023/12/16 07:02:31;;;;;;;;;;;11.00;66.80;;;9.53;66.10;103261.50;12244255;19;19914;-84
2023/12/16 07:06:33;;;;;;;;;;;10.90;66.10;;;9.57;66.02;103270.16;12252779;19;19926;-84
2023/12/16 07:10:35;;;;;;;;;;;10.90;66.10;;;9.54;66.08;103251.94;12248007;19;19928;-83
2023/12/16 07:14:38;;;;;;;;;;;10.90;66.10;;;9.40;66.07;103218.16;12247984;19;19936;-84
2023/12/16 07:18:39;;;;;;;;;;;11.00;66.20;;;9.52;65.88;103246.72;12251749;19;19919;-84
2023/12/16 07:22:41;;;;;;;;;;;11.00;66.20;;;9.40;66.04;103230.34;12250038;19;20275;-85
2023/12/16 07:26:43;;;;;;;;;;;11.00;66.20;;;9.60;66.13;103257.06;12250523;19;19925;-84
2023/12/16 07:30:44;;;;;;;;;;;11.00;66.30;;;9.42;65.96;103231.16;12248292;19;19911;-84
2023/12/16 07:34:49;;;;;;;;;;;11.00;66.10;;;9.43;65.89;103225.94;12246534;19;20320;-83
2023/12/16 07:38:51;;;;;;;;;;;11.00;66.10;;;9.54;66.00;103241.50;12251077;19;19914;-87
2023/12/16 07:42:52;;;;;;;;;;;11.00;66.10;;;9.66;65.98;103269.19;12250502;19;19919;-87
2023/12/16 07:46:55;;;;;;;;;;;11.00;66.10;;;9.64;65.98;103260.50;12251146;19;19932;-86
2023/12/16 07:50:56;;;;;;;;;;;11.00;66.10;;;9.65;66.24;103265.72;12245576;19;19926;-86
2023/12/16 07:54:58;;;;;;;;;;;11.00;66.10;;;9.60;66.08;103264.03;12246166;19;19907;-85
2023/12/16 07:59:00;;;;;;;;;;;11.10;66.10;;;9.71;66.14;103268.25;12250199;19;19927;-85
2023/12/16 08:03:01;;;;;;;;;;;11.10;66.10;;;9.69;65.98;103275.25;12244083;19;20333;-84
2023/12/16 08:07:03;;;;;;;;;;;11.10;66.10;;;9.67;65.91;103276.16;12248464;19;19918;-88
2023/12/16 08:11:05;;;;;;;;;;;11.10;66.10;;;9.64;65.99;103277.03;12245285;19;19918;-89
2023/12/16 08:15:08;;;;;;;;;;;11.10;66.00;;;9.63;66.10;103269.22;12248695;19;19919;-88
2023/12/16 08:19:09;;;;;;;;;;;11.10;66.00;;;9.58;66.06;103266.66;12250407;19;19926;-88
2023/12/16 08:23:10;;;;;;;;;;;11.10;66.00;;;9.63;66.12;103277.03;12248970;19;20553;-87
2023/12/16 08:27:12;;;;;;;;;;;11.10;65.90;;;9.59;66.07;103268.41;12247941;19;20623;-87
2023/12/16 08:31:14;;;;;;;;;;;11.10;66.00;;;9.65;66.13;103281.38;12244286;19;19918;-87
2023/12/16 08:35:15;;;;;;;;;;;11.10;65.90;;;9.74;66.07;103306.50;12245482;19;20261;-87
2023/12/16 08:39:17;;;;;;;;;;;11.10;65.90;;;9.79;66.02;103303.84;12245633;19;19994;-86
2023/12/16 08:43:19;;;;;;;;;;;11.10;66.00;;;9.78;66.11;103300.38;12249937;19;20265;-87
2023/12/16 08:47:20;;;;;;;;;;;11.10;65.90;;;9.75;66.15;103289.97;12249879;19;19931;-86
2023/12/16 08:51:22;;;;;;;;;;;11.10;66.00;;;9.81;66.01;103294.28;12245975;19;19919;-87
2023/12/16 08:55:26;;;;;;;;;;;11.20;65.90;;;9.72;66.03;103264.78;12248550;19;19922;-86
2023/12/16 08:59:28;;;;;;;;;;;11.20;66.60;;;9.78;65.91;103273.44;12243728;19;20004;-87
2023/12/16 09:03:29;;;;;;;;;;;11.20;65.90;;;9.60;65.93;103246.63;12246355;19;20470;-87
2023/12/16 09:07:31;;;;;;;;;;;11.20;65.90;;;9.79;66.01;103277.75;12244989;19;20326;-87
2023/12/16 09:11:32;;;;;;;;;;;11.20;65.90;;;9.79;65.87;103265.56;12242394;19;19915;-87
2023/12/16 09:15:34;;;;;;;;;;;11.20;65.90;;;9.82;66.10;103262.06;12240576;19;19939;-86
2023/12/16 09:19:36;;;;;;;;;;;11.20;65.80;;;9.74;65.93;103254.31;12245480;19;19915;-87
2023/12/16 09:23:37;;;;;;;;;;;11.20;65.80;;;9.81;65.96;103270.78;12246409;19;19923;-86
2023/12/16 09:27:39;;;;;;;;;;;11.20;65.80;;;9.85;66.01;103283.75;12244119;19;19919;-86
2023/12/16 09:31:41;;;;;;;;;;;11.30;65.80;;;9.82;66.21;103267.28;12241007;19;20015;-87
2023/12/16 09:35:43;;;;;;;;;;;11.30;65.80;;;9.81;66.19;103262.94;12241410;19;19975;-88
2023/12/16 09:39:44;;;;;;;;;;;11.50;65.90;;;9.82;66.18;103264.66;12242962;19;19919;-88
2023/12/16 09:43:50;;;;;;;;;;;11.30;65.70;;;9.79;66.09;103246.44;12244205;19;19938;-87
2023/12/16 09:47:51;;;;;;;;;;;11.30;65.60;;;9.91;66.08;103267.16;12244321;19;19923;-89
2023/12/16 09:51:53;;;;;;;;;;;11.30;65.40;;;9.83;66.19;103253.34;12248535;19;19915;-88
2023/12/16 09:55:55;;;;;;;;;;;11.30;65.50;;;9.82;66.15;103249.88;12251718;19;19922;-87
2023/12/16 09:59:57;;;;;;;;;;;11.30;65.50;;;9.80;66.15;103242.94;12253987;19;19919;-88
2023/12/16 10:04:00;;;;;;;;;;;11.30;65.40;;;9.77;66.06;103245.59;12254772;19;19923;-87
2023/12/16 10:08:02;;;;;;;;;;;11.30;65.00;;;9.93;66.22;103278.47;12254846;19;19921;-88
2023/12/16 10:12:08;;;;;;;;;;;11.40;65.30;;;9.89;66.20;103255.91;12252380;19;19915;-88
2023/12/16 10:16:21;;;;;;;;;;;11.40;65.20;;;9.92;66.19;103246.28;12252265;19;19911;-88
2023/12/16 10:20:23;;;;;;;;;;;11.40;65.20;;;9.92;66.00;103233.22;12252150;19;19954;-88
2023/12/16 10:24:24;;;;;;;;;;;11.40;65.30;;;9.98;65.95;103233.16;12259863;19;19980;-88
2023/12/16 10:28:26;;;;;;;;;;;11.40;65.00;;;10.03;66.10;103234.84;12257331;19;19937;-88
2023/12/16 10:32:28;;;;;;;;;;;11.50;65.10;;;10.09;66.20;103237.38;12247391;19;19948;-88
2023/12/16 10:36:30;;;;;;;;;;;11.50;65.20;;;10.08;66.32;103239.13;12256016;19;19923;-88
2023/12/16 10:40:35;;;;;;;;;;;11.50;65.20;;;10.06;66.08;103221.75;12253970;19;19918;-88
2023/12/16 10:44:36;;;;;;;;;;;11.50;65.10;;;10.06;66.17;103232.19;12256598;19;19922;-88
2023/12/16 10:48:38;;;;;;;;;;;11.60;64.80;;;10.13;66.26;103229.50;12248870;19;19907;-87
2023/12/16 10:52:43;;;;;;;;;;;11.60;65.00;;;10.04;66.06;103206.09;12246841;19;19989;-87
2023/12/16 10:56:51;;;;;;;;;;;11.60;64.90;;;9.91;66.17;103187.16;12252051;19;20255;-87
2023/12/16 11:01:09;;;;;;;;;;;11.60;64.80;;;10.16;66.07;103224.22;12249537;19;19914;-87
2023/12/16 11:05:19;;;;;;;;;;;11.60;64.70;;;10.18;66.15;103212.03;12252254;19;19914;-87
2023/12/16 11:09:21;;;;;;;;;;;11.80;64.90;;;10.20;66.14;103215.44;12250161;19;19929;-88
2023/12/16 11:13:23;;;;;;;;;;;11.70;64.80;;;10.20;66.13;103210.22;12246843;19;19949;-87
2023/12/16 11:17:33;;;;;;;;;;;11.70;64.30;;;10.24;66.20;103192.78;12251095;19;19930;-87
2023/12/16 11:21:39;;;;;;;;;;;11.70;64.50;;;10.28;65.98;103185.81;12246990;19;19919;-86
2023/12/16 11:25:42;;;;;;;;;;;11.70;64.70;;;10.26;66.14;103177.97;12251529;19;19944;-87
2023/12/16 11:29:43;;;;;;;;;;;11.80;64.50;;;10.32;65.85;103182.28;12248554;19;20271;-86
2023/12/16 11:33:47;;;;;;;;;;;11.80;64.50;;;10.40;65.99;103193.47;12246361;19;19922;-83
2023/12/16 11:37:48;;;;;;;;;;;11.80;64.20;;;10.36;66.09;103190.03;12250379;19;19986;-84
2023/12/16 11:41:50;;;;;;;;;;;11.90;64.30;;;10.33;66.09;103173.53;12247307;19;20326;-84
2023/12/16 11:45:51;;;;;;;;;;;11.90;64.50;;;10.51;65.96;103183.72;12252154;19;19923;-84
2023/12/16 11:49:55;;;;;;;;;;;11.90;64.20;;;10.45;66.00;103168.16;12248558;19;20269;-84
2023/12/16 11:53:57;;;;;;;;;;;12.00;64.40;;;10.53;66.09;103166.28;12246035;19;19927;-84
2023/12/16 11:57:59;;;;;;;;;;;12.00;64.30;;;10.54;65.94;103165.38;12242050;19;19915;-85
2023/12/16 12:02:02;;;;;;;;;;;12.00;64.30;;;10.54;66.01;103152.31;12245972;19;19926;-85
2023/12/16 12:06:04;;;;;;;;;;;12.00;64.00;;;10.55;65.96;103146.19;12244680;19;19927;-85
2023/12/16 12:10:05;;;;;;;;;;;12.00;64.10;;;10.62;65.91;103145.22;12247618;19;19911;-85
2023/12/16 12:14:07;;;;;;;;;;;12.10;64.20;;;10.69;65.88;103132.91;12247202;19;19928;-85
2023/12/16 12:18:08;;;;;;;;;;;12.10;64.30;;;10.57;65.83;103105.22;12249243;19;19914;-85
2023/12/16 12:22:10;;;;;;;;;;;12.10;64.20;;;10.62;65.98;103119.09;12246072;19;19915;-85
2023/12/16 12:26:11;;;;;;;;;;;12.10;64.80;;;10.61;65.84;103101.69;12247940;19;19915;-85
2023/12/16 12:30:21;;;;;;;;;;;12.10;64.10;;;10.60;65.87;103092.13;12246806;19;19923;-85
2023/12/16 12:34:23;;;;;;;;;;;12.10;63.90;;;10.71;65.82;103107.59;12245530;19;19923;-85
2023/12/16 12:38:45;;;;;;;;;;;12.10;63.80;;;10.71;65.92;103096.31;12248935;19;19915;-85
2023/12/16 12:43:00;;;;;;;;;;;12.20;63.90;;;10.15;65.80;103000.59;12251835;19;19994;-87
2023/12/16 12:47:09;;;;;;;;;;;12.20;63.80;;;10.40;65.73;103035.00;12248808;19;19936;-85
2023/12/16 12:51:15;;;;;;;;;;;12.00;63.40;;;10.41;65.86;103031.47;12247840;19;20265;-86
2023/12/16 12:55:26;;;;;;;;;;;12.20;63.60;;;10.16;65.91;102981.41;12242164;19;19955;-85
2023/12/16 12:59:51;;;;;;;;;;;12.20;63.40;;;10.09;65.69;102956.28;12252342;19;19936;-87
2023/12/16 13:03:57;;;;;;;;;;;12.30;63.60;;;10.45;65.71;103006.19;12245303;19;19915;-85
2023/12/16 13:07:58;;;;;;;;;;;12.10;62.80;;;10.48;65.90;103013.13;12245604;19;19918;-86
2023/12/16 13:11:59;;;;;;;;;;;12.10;63.10;;;10.70;65.63;103045.78;12244887;19;19922;-86
2023/12/16 13:16:02;;;;;;;;;;;12.10;63.30;;;10.66;65.71;103040.63;12243582;19;20450;-86
2023/12/16 13:20:05;;;;;;;;;;;12.10;63.50;;;10.68;65.81;103049.31;12243537;19;19919;-86
2023/12/16 13:24:07;;;;;;;;;;;12.10;63.30;;;10.68;65.61;103041.47;12251944;19;20275;-85
2023/12/16 13:28:09;;;;;;;;;;;12.10;63.10;;;10.57;65.64;103020.78;12257195;19;19951;-86
2023/12/16 13:32:10;;;;;;;;;;;12.10;62.70;;;10.42;65.68;103003.59;12252625;19;19918;-85
2023/12/16 13:36:16;;;;;;;;;;;12.10;63.10;;;10.62;65.69;103029.41;12251445;19;21399;-86
2023/12/16 13:40:18;;;;;;;;;;;12.00;63.00;;;10.60;65.78;103024.19;12253460;19;19954;-86
2023/12/16 13:44:19;;;;;;;;;;;12.00;63.00;;;10.59;65.59;103019.84;12256082;19;19932;-86
2023/12/16 13:48:21;;;;;;;;;;;12.10;63.20;;;10.65;65.63;103033.69;12257222;19;19911;-86
2023/12/16 13:52:22;;;;;;;;;;;12.10;63.40;;;10.38;65.76;102994.97;12253040;19;19915;-86
2023/12/16 13:56:24;;;;;;;;;;;12.10;63.20;;;10.61;65.60;103023.31;12256163;19;19919;-85
2023/12/16 14:00:26;;;;;;;;;;;12.10;63.20;;;10.68;65.62;103033.63;12253515;19;19914;-86
2023/12/16 14:04:28;;;;;;;;;;;12.10;62.90;;;10.68;65.80;103038.88;12254238;19;19930;-86
2023/12/16 14:08:31;;;;;;;;;;;12.10;63.00;;;10.59;65.60;103030.31;12257059;19;20304;-86
2023/12/16 14:12:33;;;;;;;;;;;12.10;63.00;;;10.48;65.64;103015.72;12251683;19;20003;-86
2023/12/16 14:16:34;;;;;;;;;;;12.10;63.10;;;10.72;65.47;103056.19;12255075;19;19944;-86
2023/12/16 14:20:36;;;;;;;;;;;12.10;63.20;;;10.74;65.71;103064.88;12252791;19;19927;-86
2023/12/16 14:24:37;;;;;;;;;;;12.10;63.10;;;10.69;65.77;103059.72;12255534;19;19915;-86
2023/12/16 14:28:39;;;;;;;;;;;12.10;63.20;;;10.71;65.74;103059.72;12252795;19;19936;-86
2023/12/16 14:32:40;;;;;;;;;;;12.10;63.30;;;10.63;65.73;103037.19;12255770;19;19915;-86
2023/12/16 14:36:42;;;;;;;;;;;12.10;63.30;;;10.71;65.63;103054.50;12253540;19;20322;-86
2023/12/16 14:40:43;;;;;;;;;;;12.20;63.30;;;10.47;65.62;103013.97;12254771;19;20162;-86
2023/12/16 14:44:44;;;;;;;;;;;12.20;63.30;;;10.43;65.48;103004.50;12254219;19;19915;-86
2023/12/16 14:48:46;;;;;;;;;;;12.10;63.30;;;10.70;65.51;103052.78;12255124;19;19936;-86
2023/12/16 14:52:47;;;;;;;;;;;12.10;63.10;;;10.69;65.56;103035.34;12251929;19;19930;-86
2023/12/16 14:56:48;;;;;;;;;;;12.10;63.30;;;10.55;65.51;103012.09;12253999;19;19923;-85
2023/12/16 15:00:50;;;;;;;;;;;12.00;63.30;;;10.44;65.59;102996.63;12249439;19;19974;-86
2023/12/16 15:04:51;;;;;;;;;;;12.00;63.40;;;10.51;65.61;102998.25;12254047;19;19911;-86
2023/12/16 15:08:52;;;;;;;;;;;12.00;63.00;;;10.63;65.52;103026.72;12251783;19;19922;-85
2023/12/16 15:12:54;;;;;;;;;;;12.00;63.20;;;10.54;65.45;103013.84;12250960;19;19926;-85
2023/12/16 15:16:55;;;;;;;;;;;12.00;63.40;;;10.66;65.48;103027.56;12253345;19;19919;-86
2023/12/16 15:20:58;;;;;;;;;;;12.00;63.40;;;10.59;65.40;103017.25;12250754;19;20324;-86
2023/12/16 15:24:59;;;;;;;;;;;12.00;63.00;;;10.58;65.39;103025.94;12252345;19;19990;-85
2023/12/16 15:29:02;;;;;;;;;;;12.00;63.00;;;10.60;65.51;103039.84;12249647;19;19927;-86
2023/12/16 15:33:04;;;;;;;;;;;12.00;63.20;;;10.58;65.35;103033.78;12249547;19;19918;-86
2023/12/16 15:37:06;;;;;;;;;;;12.00;63.40;;;10.54;65.42;103026.91;12249656;19;19921;-86
2023/12/16 15:41:16;;;;;;;;;;;11.90;63.40;;;10.57;65.43;103026.84;12249676;19;19911;-85
2023/12/16 15:45:18;;;;;;;;;;;11.90;63.70;;;10.37;65.29;102981.97;12249715;19;19922;-86
2023/12/16 15:49:23;;;;;;;;;;;11.90;64.40;;;10.55;65.49;102999.03;12247420;19;20658;-85
2023/12/16 15:53:24;;;;;;;;;;;11.90;63.70;;;10.36;65.45;102975.00;12249162;19;19915;-85
2023/12/16 15:57:27;;;;;;;;;;;11.90;63.70;;;10.53;65.61;102998.19;12248225;19;19923;-85
2023/12/16 16:01:31;;;;;;;;;;;11.90;63.70;;;10.56;65.38;102992.94;12246939;19;19923;-85
2023/12/16 16:05:32;;;;;;;;;;;11.90;63.70;;;10.40;65.22;102966.22;12248702;19;19919;-85
2023/12/16 16:09:43;;;;;;;;;;;11.90;63.70;;;10.61;65.30;103001.53;12302266;19;20297;-84
2023/12/16 16:13:45;;;;;;;;;;;12.00;63.60;;;10.59;65.43;103001.56;12302653;19;19922;-85
2023/12/16 16:17:47;;;;;;;;;;;12.00;63.70;;;10.52;65.34;102996.47;12296760;19;19922;-84
2023/12/16 16:21:48;;;;;;;;;;;12.00;63.60;;;10.56;65.39;102995.56;12300432;19;19922;-85
2023/12/16 16:25:50;;;;;;;;;;;12.00;63.70;;;10.62;65.39;103022.41;12303308;19;19918;-84
2023/12/16 16:29:52;;;;;;;;;;;12.00;63.50;;;10.61;65.38;103022.41;12301246;19;19919;-85
2023/12/16 16:33:56;;;;;;;;;;;11.90;63.50;;;10.58;65.35;103033.78;12302651;19;19935;-85
2023/12/16 16:37:57;;;;;;;;;;;12.00;63.70;;;10.58;65.36;103025.94;12302104;19;20321;-85
2023/12/16 16:41:59;;;;;;;;;;;12.00;63.70;;;10.63;65.41;103039.78;12300140;19;20258;-85
2023/12/16 16:46:01;;;;;;;;;;;12.00;63.70;;;10.43;65.36;102996.66;12302977;19;19966;-85
2023/12/16 16:50:04;;;;;;;;;;;12.00;63.70;;;10.62;65.42;103035.47;12297964;19;19978;-85
2023/12/16 16:54:05;;;;;;;;;;;12.00;63.60;;;10.66;65.21;103031.03;12301950;19;19986;-85
2023/12/16 16:58:06;;;;;;;;;;;12.00;63.60;;;10.56;65.40;103011.22;12301512;19;19991;-84
2023/12/16 17:02:08;;;;;;;;;;;12.00;63.70;;;10.65;65.26;103018.03;12297551;19;20556;-85
2023/12/16 17:06:09;;;;;;;;;;;12.00;63.70;;;10.66;65.39;103011.91;12302756;19;19915;-85
2023/12/16 17:10:11;;;;;;;;;;;12.00;63.70;;;10.60;65.14;102999.81;12300037;19;19918;-85
2023/12/16 17:14:12;;;;;;;;;;;12.00;64.30;;;10.57;65.38;102992.88;12297792;19;19919;-85
2023/12/16 17:18:14;;;;;;;;;;;12.00;63.70;;;10.58;65.33;102985.91;12288935;19;19911;-84
2023/12/16 17:22:15;;;;;;;;;;;12.00;63.70;;;10.72;65.28;102990.88;12248364;19;20309;-85
2023/12/16 17:26:16;;;;;;;;;;;12.10;63.70;;;10.66;65.21;102993.59;12253681;19;19930;-85
2023/12/16 17:30:18;;;;;;;;;;;12.10;63.80;;;10.73;65.45;103001.31;12250388;19;19922;-85
2023/12/16 17:34:19;;;;;;;;;;;12.10;63.70;;;10.71;65.19;103004.84;12254735;19;19960;-85
2023/12/16 17:38:21;;;;;;;;;;;12.10;63.70;;;10.73;65.46;102990.00;12253245;19;19919;-85
2023/12/16 17:42:22;;;;;;;;;;;12.10;63.70;;;10.70;65.35;102993.53;12250478;19;19919;-84
2023/12/16 17:46:23;;;;;;;;;;;12.10;63.70;;;10.75;65.29;102993.44;12254169;19;19926;-85
2023/12/16 17:50:25;;;;;;;;;;;12.10;63.70;;;10.72;65.04;102989.13;12250982;19;20329;-85
2023/12/16 17:54:30;;;;;;;;;;;12.10;63.60;;;10.65;65.32;102986.66;12252157;19;19998;-85
2023/12/16 17:58:31;;;;;;;;;;;12.10;63.40;;;10.70;65.30;102995.28;12252373;19;19907;-85
2023/12/16 18:02:33;;;;;;;;;;;12.10;63.60;;;10.74;65.36;102996.94;12249500;19;19966;-85
2023/12/16 18:06:34;;;;;;;;;;;12.10;63.70;;;10.61;65.42;102981.50;12251477;19;19910;-84
2023/12/16 18:10:36;;;;;;;;;;;12.10;63.70;;;10.68;65.18;103008.38;12251760;19;19914;-85
2023/12/16 18:14:37;;;;;;;;;;;12.10;63.80;;;10.75;65.24;103016.97;12251919;19;19918;-84
2023/12/16 18:18:42;;;;;;;;;;;12.10;63.80;;;10.50;65.21;102985.19;12252695;19;20337;-85